createdAt,value
2023-02-03T00:00:01.586Z,94.004
2023-02-03T00:07:01.628Z,94.004
2023-02-03T00:14:02.054Z,93.943
2023-02-03T00:21:01.494Z,93.943
2023-02-03T00:28:01.713Z,93.999
2023-02-03T00:35:02.041Z,93.703
2023-02-03T00:42:01.340Z,93.703
2023-02-03T00:49:02.001Z,93.302
2023-02-03T00:56:02.171Z,93.302
2023-02-03T01:00:01.808Z,93.375
2023-02-03T01:07:02.220Z,93.375
2023-02-03T01:14:02.090Z,93.228
2023-02-03T01:21:01.537Z,93.228
2023-02-03T01:28:01.702Z,93.018
2023-02-03T01:35:02.097Z,93.018
2023-02-03T01:42:01.335Z,92.642
2023-02-03T01:49:01.638Z,92.642
2023-02-03T01:56:01.986Z,92.633
2023-02-03T02:00:01.610Z,92.633
2023-02-03T02:07:01.712Z,92.721
2023-02-03T02:14:01.343Z,92.721
2023-02-03T02:21:02.307Z,92.63
2023-02-03T02:28:01.953Z,92.63
2023-02-03T02:35:02.353Z,92.445
2023-02-03T02:42:01.928Z,92.445
2023-02-03T02:49:02.255Z,92.216
2023-02-03T02:56:02.203Z,92.196
2023-02-03T03:00:01.807Z,92.196
2023-02-03T03:07:01.769Z,92.196
2023-02-03T03:14:01.762Z,91.827
2023-02-03T03:21:01.660Z,91.827
2023-02-03T03:28:02.444Z,91.737
2023-02-03T03:35:02.010Z,91.749
2023-02-03T03:42:01.687Z,91.749
2023-02-03T03:49:01.809Z,91.594
2023-02-03T03:56:02.000Z,91.594
2023-02-03T04:00:01.582Z,91.545
2023-02-03T04:07:01.618Z,91.545
2023-02-03T04:14:01.872Z,91.195
2023-02-03T04:21:01.987Z,91.195
2023-02-03T04:28:01.605Z,91.354
2023-02-03T04:35:02.368Z,91.354
2023-02-03T04:42:02.087Z,91.253
2023-02-03T04:49:01.385Z,91.253
2023-02-03T04:56:01.594Z,91.256
2023-02-03T05:00:02.194Z,91.256
2023-02-03T05:07:02.273Z,91.167
2023-02-03T05:14:01.368Z,91.167
2023-02-03T05:21:02.207Z,91.132
2023-02-03T05:28:01.470Z,91.132
2023-02-03T05:35:02.332Z,90.884
2023-02-03T05:42:01.506Z,90.884
2023-02-03T05:49:01.887Z,90.727
2023-02-03T05:56:01.412Z,90.456
2023-02-03T06:00:02.070Z,90.456
2023-02-03T06:07:02.271Z,90.456
2023-02-03T06:14:01.419Z,90.374
2023-02-03T06:21:01.867Z,90.374
2023-02-03T06:28:02.091Z,89.822
2023-02-03T06:35:01.843Z,89.625
2023-02-03T06:42:01.792Z,89.625
2023-02-03T06:49:01.941Z,89.014
2023-02-03T06:56:01.681Z,89.014
2023-02-03T07:00:02.333Z,88.336
2023-02-03T07:07:01.610Z,88.336
2023-02-03T07:14:01.761Z,88.287
2023-02-03T07:21:01.641Z,88.287
2023-02-03T07:28:01.824Z,87.826
2023-02-03T07:35:02.271Z,87.826
2023-02-03T07:42:01.845Z,87.802
2023-02-03T07:49:01.492Z,87.802
2023-02-03T07:56:01.733Z,87.569
2023-02-03T08:00:02.292Z,87.569
2023-02-03T08:07:01.552Z,87.283
2023-02-03T08:14:01.787Z,87.283
2023-02-03T08:21:01.948Z,86.961
2023-02-03T08:28:01.562Z,86.961
2023-02-03T08:35:02.012Z,86.842
2023-02-03T08:42:01.467Z,86.842
2023-02-03T08:49:01.549Z,86.72
2023-02-03T08:56:01.626Z,86.941
2023-02-03T09:00:02.192Z,86.941
2023-02-03T09:07:01.624Z,86.941
2023-02-03T09:14:02.198Z,87.346
2023-02-03T09:21:01.882Z,87.346
2023-02-03T09:28:02.004Z,87.545
2023-02-03T09:35:02.193Z,88.082
2023-02-03T09:42:01.937Z,88.082
2023-02-03T09:49:01.539Z,88.682
2023-02-03T09:56:01.775Z,88.682
2023-02-03T10:00:02.306Z,89.292
2023-02-03T10:07:01.915Z,89.292
2023-02-03T10:14:02.198Z,90.008
2023-02-03T10:21:01.340Z,90.008
2023-02-03T10:28:01.789Z,90.413
2023-02-03T10:35:01.600Z,90.413
2023-02-03T10:42:02.188Z,90.293
2023-02-03T10:49:02.031Z,90.293
2023-02-03T10:56:01.792Z,90.561
2023-02-03T11:00:02.511Z,90.561
2023-02-03T11:07:02.296Z,90.49
2023-02-03T11:14:01.865Z,90.49
2023-02-03T11:21:01.609Z,90.467
2023-02-03T11:28:02.164Z,90.467
2023-02-03T11:35:02.389Z,90.478
2023-02-03T11:42:01.492Z,90.478
2023-02-03T11:49:01.400Z,90.291
2023-02-03T11:56:01.551Z,90.48
2023-02-03T12:00:02.173Z,90.48
2023-02-03T12:07:01.880Z,90.48
2023-02-03T12:14:02.292Z,90.325
2023-02-03T12:21:01.894Z,90.325
2023-02-03T12:28:02.246Z,90.139
2023-02-03T12:35:02.764Z,90.02
2023-02-03T12:42:02.208Z,90.02
2023-02-03T12:49:01.574Z,90.037
2023-02-03T12:56:01.933Z,90.037
2023-02-03T13:00:02.533Z,90.044
2023-02-03T13:07:02.075Z,90.044
2023-02-03T13:14:01.806Z,89.727
2023-02-03T13:21:02.215Z,89.727
2023-02-03T13:28:01.753Z,89.727
2023-02-03T13:35:01.514Z,89.727
2023-02-03T13:42:02.009Z,88.271
2023-02-03T13:49:01.411Z,88.271
2023-02-03T13:56:02.079Z,88.271
2023-02-03T14:00:01.659Z,88.271
2023-02-03T14:07:01.890Z,88.271
2023-02-03T15:00:02.234Z,90.404
2023-02-03T15:07:02.069Z,90.404
2023-02-03T15:14:01.384Z,93.089
2023-02-03T15:21:02.256Z,93.089
2023-02-03T15:28:02.087Z,93.486
2023-02-03T15:35:02.461Z,93.486
2023-02-03T15:42:01.675Z,91.53
2023-02-03T15:49:01.431Z,91.53
2023-02-03T15:56:02.252Z,88.801
2023-02-03T16:00:01.892Z,88.801
2023-02-03T16:07:01.773Z,86.285
2023-02-03T16:14:02.086Z,86.285
2023-02-03T16:21:01.627Z,86.285
2023-02-03T16:28:02.224Z,87.255
2023-02-03T16:35:01.678Z,87.255
2023-02-03T16:42:01.470Z,88.454
2023-02-03T16:49:02.085Z,88.454
2023-02-03T16:56:02.309Z,89.417
2023-02-03T17:00:01.910Z,89.417
2023-02-03T17:07:01.376Z,89.417
2023-02-03T17:14:01.317Z,89.417
2023-02-03T17:21:02.157Z,89.397
2023-02-03T17:28:02.323Z,89.397
2023-02-03T17:35:02.470Z,88.471
2023-02-03T17:56:01.449Z,88.401
2023-02-03T18:00:01.987Z,88.044
2023-02-03T18:07:02.061Z,88.044
2023-02-03T18:14:02.118Z,87.609
2023-02-03T18:21:01.541Z,87.609
2023-02-03T18:28:01.420Z,86.964
2023-02-03T18:35:02.034Z,86.964
2023-02-03T18:42:01.579Z,85.701
2023-02-03T18:49:01.295Z,85.701
2023-02-03T18:56:01.888Z,84.932
2023-02-03T19:00:02.503Z,84.932
2023-02-03T19:07:01.279Z,83.878
2023-02-03T19:14:02.101Z,83.878
2023-02-03T19:21:01.390Z,83.909
2023-02-03T19:28:01.893Z,83.909
2023-02-03T19:35:01.674Z,83.787
2023-02-03T19:42:01.696Z,84.646
2023-02-03T19:49:01.732Z,84.646
2023-02-03T19:56:01.438Z,85.995
2023-02-03T20:00:02.069Z,85.995
2023-02-03T20:07:01.422Z,88.135
2023-02-03T20:14:02.023Z,88.135
2023-02-03T20:21:01.966Z,88.466
2023-02-03T20:28:01.790Z,88.466
2023-02-03T20:35:02.431Z,88.083
2023-02-03T20:42:01.819Z,88.083
2023-02-03T20:49:02.157Z,87.283
2023-02-03T20:56:02.186Z,87.283
2023-02-03T21:00:01.715Z,86.72
2023-02-03T21:07:01.798Z,86.72
2023-02-03T21:14:02.094Z,84.918
2023-02-03T21:21:01.835Z,84.918
2023-02-03T21:28:01.843Z,83.797
2023-02-03T21:35:02.507Z,83.797
2023-02-03T21:42:01.920Z,82.891
2023-02-03T21:49:01.344Z,82.891
2023-02-03T21:56:01.842Z,82.876
2023-02-03T22:00:02.445Z,82.876
2023-02-03T22:07:01.634Z,82.448
2023-02-03T22:14:02.283Z,82.448
2023-02-03T22:21:02.017Z,82.127
2023-02-03T22:28:01.964Z,81.964
2023-02-03T22:35:01.729Z,81.964
2023-02-03T22:42:01.715Z,81.779
2023-02-03T22:49:01.938Z,81.779
2023-02-03T22:56:01.891Z,81.062
2023-02-03T23:00:02.500Z,81.062
2023-02-03T23:07:01.302Z,81.793
2023-02-03T23:14:01.682Z,81.793
2023-02-03T23:21:02.160Z,82.322
2023-02-03T23:28:01.733Z,82.322
2023-02-03T23:35:02.682Z,82.264
2023-02-03T23:42:02.215Z,82.264
2023-02-03T23:49:01.448Z,82.555
2023-02-03T23:56:02.232Z,82.555
